sensor_id;sensor_type;location;lat;lon;timestamp;P1;durP1;ratioP1;P2;durP2;ratioP2
24619;SDS011;12763;55.802;37.404;2022-08-26T00:00:46;35.95;;;18.10;;
24619;SDS011;12763;55.802;37.404;2022-08-26T00:03:13;43.90;;;17.13;;
24619;SDS011;12763;55.802;37.404;2022-08-26T00:05:41;34.85;;;17.05;;
24619;SDS011;12763;55.802;37.404;2022-08-26T00:08:08;40.72;;;19.08;;
24619;SDS011;12763;55.802;37.404;2022-08-26T00:10:36;37.58;;;18.55;;
24619;SDS011;12763;55.802;37.404;2022-08-26T00:13:02;36.67;;;17.02;;
24619;SDS011;12763;55.802;37.404;2022-08-26T00:15:29;31.73;;;17.35;;
24619;SDS011;12763;55.802;37.404;2022-08-26T00:17:55;37.45;;;17.13;;
24619;SDS011;12763;55.802;37.404;2022-08-26T00:20:24;52.25;;;19.13;;
24619;SDS011;12763;55.802;37.404;2022-08-26T00:22:52;33.40;;;17.00;;
24619;SDS011;12763;55.802;37.404;2022-08-26T00:25:18;37.13;;;18.13;;
24619;SDS011;12763;55.802;37.404;2022-08-26T00:27:45;30.80;;;17.20;;
24619;SDS011;12763;55.802;37.404;2022-08-26T00:30:13;34.53;;;17.67;;
24619;SDS011;12763;55.802;37.404;2022-08-26T00:32:41;29.58;;;17.50;;
24619;SDS011;12763;55.802;37.404;2022-08-26T00:35:07;35.15;;;16.65;;
24619;SDS011;12763;55.802;37.404;2022-08-26T00:37:34;31.45;;;17.25;;
24619;SDS011;12763;55.802;37.404;2022-08-26T00:40:00;41.95;;;18.00;;
24619;SDS011;12763;55.802;37.404;2022-08-26T00:42:28;42.83;;;17.45;;
24619;SDS011;12763;55.802;37.404;2022-08-26T00:44:54;30.30;;;15.95;;
24619;SDS011;12763;55.802;37.404;2022-08-26T00:49:56;33.05;;;16.83;;
24619;SDS011;12763;55.802;37.404;2022-08-26T00:52:25;34.22;;;16.73;;
24619;SDS011;12763;55.802;37.404;2022-08-26T00:54:53;43.83;;;17.35;;
24619;SDS011;12763;55.802;37.404;2022-08-26T00:57:30;41.65;;;17.23;;
24619;SDS011;12763;55.802;37.404;2022-08-26T00:59:58;34.05;;;16.63;;
24619;SDS011;12763;55.802;37.404;2022-08-26T01:02:25;34.63;;;17.65;;
24619;SDS011;12763;55.802;37.404;2022-08-26T01:04:55;32.70;;;17.35;;
24619;SDS011;12763;55.802;37.404;2022-08-26T01:07:25;34.35;;;17.00;;
24619;SDS011;12763;55.802;37.404;2022-08-26T01:09:53;37.45;;;16.90;;
24619;SDS011;12763;55.802;37.404;2022-08-26T01:12:22;41.83;;;17.02;;
24619;SDS011;12763;55.802;37.404;2022-08-26T01:14:49;32.05;;;17.00;;
24619;SDS011;12763;55.802;37.404;2022-08-26T01:17:16;36.20;;;17.27;;
24619;SDS011;12763;55.802;37.404;2022-08-26T01:19:49;34.85;;;16.23;;
24619;SDS011;12763;55.802;37.404;2022-08-26T01:22:27;38.10;;;18.05;;
24619;SDS011;12763;55.802;37.404;2022-08-26T01:24:57;31.83;;;17.38;;
24619;SDS011;12763;55.802;37.404;2022-08-26T01:27:25;37.38;;;17.92;;
24619;SDS011;12763;55.802;37.404;2022-08-26T01:29:56;28.55;;;16.08;;
24619;SDS011;12763;55.802;37.404;2022-08-26T01:32:24;39.00;;;17.33;;
24619;SDS011;12763;55.802;37.404;2022-08-26T01:34:52;33.85;;;17.15;;
24619;SDS011;12763;55.802;37.404;2022-08-26T01:37:19;37.58;;;15.77;;
24619;SDS011;12763;55.802;37.404;2022-08-26T01:39:50;39.00;;;17.55;;
24619;SDS011;12763;55.802;37.404;2022-08-26T01:42:18;34.00;;;15.63;;
24619;SDS011;12763;55.802;37.404;2022-08-26T01:44:56;33.05;;;15.60;;
24619;SDS011;12763;55.802;37.404;2022-08-26T01:47:28;38.75;;;16.35;;
24619;SDS011;12763;55.802;37.404;2022-08-26T01:49:56;31.17;;;16.77;;
24619;SDS011;12763;55.802;37.404;2022-08-26T01:52:27;21.85;;;14.65;;
24619;SDS011;12763;55.802;37.404;2022-08-26T01:54:54;28.35;;;15.00;;
24619;SDS011;12763;55.802;37.404;2022-08-26T01:57:23;53.22;;;16.08;;
24619;SDS011;12763;55.802;37.404;2022-08-26T01:59:50;31.92;;;14.93;;
24619;SDS011;12763;55.802;37.404;2022-08-26T02:02:19;26.65;;;15.90;;
24619;SDS011;12763;55.802;37.404;2022-08-26T02:04:47;26.38;;;15.50;;
24619;SDS011;12763;55.802;37.404;2022-08-26T02:07:18;31.15;;;15.95;;
24619;SDS011;12763;55.802;37.404;2022-08-26T02:09:46;27.40;;;15.75;;
24619;SDS011;12763;55.802;37.404;2022-08-26T02:12:14;28.10;;;15.93;;
24619;SDS011;12763;55.802;37.404;2022-08-26T02:14:44;33.50;;;16.25;;
24619;SDS011;12763;55.802;37.404;2022-08-26T02:17:15;32.83;;;16.55;;
24619;SDS011;12763;55.802;37.404;2022-08-26T02:19:44;35.72;;;17.30;;
24619;SDS011;12763;55.802;37.404;2022-08-26T02:22:13;26.02;;;16.73;;
24619;SDS011;12763;55.802;37.404;2022-08-26T02:24:47;34.10;;;16.63;;
24619;SDS011;12763;55.802;37.404;2022-08-26T02:27:15;34.00;;;17.70;;
24619;SDS011;12763;55.802;37.404;2022-08-26T02:29:44;32.20;;;16.58;;
24619;SDS011;12763;55.802;37.404;2022-08-26T02:32:13;26.42;;;16.25;;
24619;SDS011;12763;55.802;37.404;2022-08-26T02:34:42;31.85;;;17.23;;
24619;SDS011;12763;55.802;37.404;2022-08-26T02:37:09;37.22;;;17.27;;
24619;SDS011;12763;55.802;37.404;2022-08-26T02:39:38;33.28;;;15.55;;
24619;SDS011;12763;55.802;37.404;2022-08-26T02:42:05;26.05;;;15.52;;
24619;SDS011;12763;55.802;37.404;2022-08-26T02:44:31;32.92;;;16.13;;
24619;SDS011;12763;55.802;37.404;2022-08-26T02:46:58;30.42;;;14.93;;
24619;SDS011;12763;55.802;37.404;2022-08-26T02:49:24;36.85;;;17.27;;
24619;SDS011;12763;55.802;37.404;2022-08-26T02:51:51;28.38;;;15.82;;
24619;SDS011;12763;55.802;37.404;2022-08-26T02:54:18;29.63;;;16.08;;
24619;SDS011;12763;55.802;37.404;2022-08-26T02:56:48;39.70;;;17.20;;
24619;SDS011;12763;55.802;37.404;2022-08-26T02:59:15;32.95;;;16.00;;
24619;SDS011;12763;55.802;37.404;2022-08-26T03:01:42;30.00;;;16.77;;
24619;SDS011;12763;55.802;37.404;2022-08-26T03:04:10;29.90;;;16.15;;
24619;SDS011;12763;55.802;37.404;2022-08-26T03:06:40;33.13;;;16.02;;
24619;SDS011;12763;55.802;37.404;2022-08-26T03:09:06;24.95;;;16.27;;
24619;SDS011;12763;55.802;37.404;2022-08-26T03:11:32;26.48;;;15.95;;
24619;SDS011;12763;55.802;37.404;2022-08-26T03:14:02;29.60;;;15.82;;
24619;SDS011;12763;55.802;37.404;2022-08-26T03:16:32;29.88;;;15.95;;
24619;SDS011;12763;55.802;37.404;2022-08-26T03:19:00;30.00;;;15.73;;
24619;SDS011;12763;55.802;37.404;2022-08-26T03:21:27;21.67;;;14.55;;
24619;SDS011;12763;55.802;37.404;2022-08-26T03:23:54;26.60;;;15.73;;
24619;SDS011;12763;55.802;37.404;2022-08-26T03:26:21;31.92;;;16.48;;
24619;SDS011;12763;55.802;37.404;2022-08-26T03:28:47;26.40;;;16.00;;
24619;SDS011;12763;55.802;37.404;2022-08-26T03:31:31;24.67;;;16.15;;
24619;SDS011;12763;55.802;37.404;2022-08-26T03:33:58;29.55;;;16.13;;
24619;SDS011;12763;55.802;37.404;2022-08-26T03:36:24;26.45;;;16.40;;
24619;SDS011;12763;55.802;37.404;2022-08-26T03:38:51;28.20;;;17.10;;
24619;SDS011;12763;55.802;37.404;2022-08-26T03:41:19;31.13;;;17.00;;
24619;SDS011;12763;55.802;37.404;2022-08-26T03:43:48;25.85;;;15.18;;
24619;SDS011;12763;55.802;37.404;2022-08-26T03:46:15;30.65;;;16.23;;
24619;SDS011;12763;55.802;37.404;2022-08-26T03:48:45;31.60;;;17.25;;
24619;SDS011;12763;55.802;37.404;2022-08-26T03:51:14;31.63;;;17.00;;
24619;SDS011;12763;55.802;37.404;2022-08-26T03:53:42;29.25;;;18.02;;
24619;SDS011;12763;55.802;37.404;2022-08-26T03:56:08;28.38;;;16.05;;
24619;SDS011;12763;55.802;37.404;2022-08-26T03:58:34;34.65;;;17.75;;
24619;SDS011;12763;55.802;37.404;2022-08-26T04:01:01;26.70;;;16.40;;
24619;SDS011;12763;55.802;37.404;2022-08-26T04:03:28;32.00;;;17.48;;
24619;SDS011;12763;55.802;37.404;2022-08-26T04:08:40;29.50;;;16.42;;
24619;SDS011;12763;55.802;37.404;2022-08-26T04:11:06;29.20;;;17.35;;
24619;SDS011;12763;55.802;37.404;2022-08-26T04:13:35;31.42;;;17.27;;
24619;SDS011;12763;55.802;37.404;2022-08-26T04:16:02;37.15;;;18.17;;
24619;SDS011;12763;55.802;37.404;2022-08-26T04:18:28;28.20;;;16.85;;
24619;SDS011;12763;55.802;37.404;2022-08-26T04:20:57;30.45;;;17.77;;
24619;SDS011;12763;55.802;37.404;2022-08-26T04:23:23;35.55;;;17.33;;
24619;SDS011;12763;55.802;37.404;2022-08-26T04:25:49;42.53;;;18.67;;
24619;SDS011;12763;55.802;37.404;2022-08-26T04:28:15;32.10;;;17.42;;
24619;SDS011;12763;55.802;37.404;2022-08-26T04:30:41;35.33;;;18.10;;
24619;SDS011;12763;55.802;37.404;2022-08-26T04:33:07;38.63;;;19.88;;
24619;SDS011;12763;55.802;37.404;2022-08-26T04:35:33;30.05;;;16.85;;
24619;SDS011;12763;55.802;37.404;2022-08-26T04:38:04;42.55;;;19.67;;
24619;SDS011;12763;55.802;37.404;2022-08-26T04:40:30;35.35;;;18.67;;
24619;SDS011;12763;55.802;37.404;2022-08-26T04:42:56;39.33;;;18.50;;
24619;SDS011;12763;55.802;37.404;2022-08-26T04:45:22;42.30;;;23.35;;
24619;SDS011;12763;55.802;37.404;2022-08-26T04:47:53;39.47;;;19.50;;
24619;SDS011;12763;55.802;37.404;2022-08-26T04:50:23;35.30;;;19.15;;
24619;SDS011;12763;55.802;37.404;2022-08-26T04:52:50;32.40;;;20.30;;
24619;SDS011;12763;55.802;37.404;2022-08-26T04:55:16;41.28;;;21.38;;
24619;SDS011;12763;55.802;37.404;2022-08-26T04:57:42;41.63;;;20.60;;
24619;SDS011;12763;55.802;37.404;2022-08-26T05:00:08;33.28;;;18.23;;
24619;SDS011;12763;55.802;37.404;2022-08-26T05:02:37;40.80;;;20.33;;
24619;SDS011;12763;55.802;37.404;2022-08-26T05:05:04;33.53;;;19.05;;
24619;SDS011;12763;55.802;37.404;2022-08-26T05:07:32;43.70;;;20.65;;
24619;SDS011;12763;55.802;37.404;2022-08-26T05:10:00;27.65;;;17.52;;
24619;SDS011;12763;55.802;37.404;2022-08-26T05:12:29;33.88;;;18.23;;
24619;SDS011;12763;55.802;37.404;2022-08-26T05:14:59;43.35;;;19.23;;
24619;SDS011;12763;55.802;37.404;2022-08-26T05:17:26;31.83;;;15.82;;
24619;SDS011;12763;55.802;37.404;2022-08-26T05:19:53;39.05;;;18.05;;
24619;SDS011;12763;55.802;37.404;2022-08-26T05:22:20;31.25;;;16.95;;
24619;SDS011;12763;55.802;37.404;2022-08-26T05:24:46;22.58;;;14.98;;
24619;SDS011;12763;55.802;37.404;2022-08-26T05:27:13;32.88;;;17.20;;
24619;SDS011;12763;55.802;37.404;2022-08-26T05:29:39;28.38;;;16.20;;
24619;SDS011;12763;55.802;37.404;2022-08-26T05:32:06;28.75;;;15.60;;
24619;SDS011;12763;55.802;37.404;2022-08-26T05:34:33;36.33;;;16.90;;
24619;SDS011;12763;55.802;37.404;2022-08-26T05:36:59;31.10;;;15.35;;
24619;SDS011;12763;55.802;37.404;2022-08-26T05:39:28;29.48;;;16.02;;
24619;SDS011;12763;55.802;37.404;2022-08-26T05:41:58;25.90;;;14.77;;
24619;SDS011;12763;55.802;37.404;2022-08-26T05:44:25;31.48;;;16.20;;
24619;SDS011;12763;55.802;37.404;2022-08-26T05:46:50;31.48;;;15.43;;
24619;SDS011;12763;55.802;37.404;2022-08-26T05:49:16;29.70;;;15.43;;
24619;SDS011;12763;55.802;37.404;2022-08-26T05:51:43;31.67;;;16.98;;
24619;SDS011;12763;55.802;37.404;2022-08-26T05:54:11;31.27;;;14.88;;
24619;SDS011;12763;55.802;37.404;2022-08-26T05:56:37;24.35;;;14.32;;
24619;SDS011;12763;55.802;37.404;2022-08-26T05:59:04;26.58;;;14.63;;
24619;SDS011;12763;55.802;37.404;2022-08-26T06:01:30;25.50;;;13.90;;
24619;SDS011;12763;55.802;37.404;2022-08-26T06:03:59;28.67;;;14.88;;
24619;SDS011;12763;55.802;37.404;2022-08-26T06:06:27;28.75;;;15.55;;
24619;SDS011;12763;55.802;37.404;2022-08-26T06:08:55;24.42;;;14.27;;
24619;SDS011;12763;55.802;37.404;2022-08-26T06:11:24;26.48;;;14.35;;
24619;SDS011;12763;55.802;37.404;2022-08-26T06:13:52;26.77;;;14.65;;
24619;SDS011;12763;55.802;37.404;2022-08-26T06:16:20;23.80;;;14.13;;
24619;SDS011;12763;55.802;37.404;2022-08-26T06:18:48;23.73;;;14.43;;
24619;SDS011;12763;55.802;37.404;2022-08-26T06:21:22;27.05;;;14.85;;
24619;SDS011;12763;55.802;37.404;2022-08-26T06:23:53;21.35;;;14.10;;
24619;SDS011;12763;55.802;37.404;2022-08-26T06:26:40;22.85;;;12.98;;
24619;SDS011;12763;55.802;37.404;2022-08-26T06:29:07;20.10;;;13.45;;
24619;SDS011;12763;55.802;37.404;2022-08-26T06:31:33;26.85;;;14.55;;
24619;SDS011;12763;55.802;37.404;2022-08-26T06:34:01;27.92;;;14.68;;
24619;SDS011;12763;55.802;37.404;2022-08-26T06:36:28;26.80;;;13.82;;
24619;SDS011;12763;55.802;37.404;2022-08-26T06:38:57;21.88;;;13.80;;
24619;SDS011;12763;55.802;37.404;2022-08-26T06:41:25;23.15;;;14.15;;
24619;SDS011;12763;55.802;37.404;2022-08-26T06:43:52;21.90;;;13.73;;
24619;SDS011;12763;55.802;37.404;2022-08-26T06:46:18;24.50;;;15.07;;
24619;SDS011;12763;55.802;37.404;2022-08-26T06:48:45;27.42;;;15.85;;
24619;SDS011;12763;55.802;37.404;2022-08-26T06:51:13;26.23;;;14.10;;
24619;SDS011;12763;55.802;37.404;2022-08-26T06:53:41;20.80;;;13.73;;
24619;SDS011;12763;55.802;37.404;2022-08-26T06:56:11;29.48;;;15.30;;
24619;SDS011;12763;55.802;37.404;2022-08-26T06:58:39;21.88;;;12.98;;
24619;SDS011;12763;55.802;37.404;2022-08-26T07:01:17;30.65;;;13.90;;
24619;SDS011;12763;55.802;37.404;2022-08-26T07:03:54;22.38;;;11.65;;
24619;SDS011;12763;55.802;37.404;2022-08-26T07:06:22;25.85;;;13.45;;
24619;SDS011;12763;55.802;37.404;2022-08-26T07:08:51;26.10;;;13.70;;
24619;SDS011;12763;55.802;37.404;2022-08-26T07:11:18;23.77;;;11.38;;
24619;SDS011;12763;55.802;37.404;2022-08-26T07:13:45;17.83;;;11.65;;
24619;SDS011;12763;55.802;37.404;2022-08-26T07:16:12;26.17;;;12.35;;
24619;SDS011;12763;55.802;37.404;2022-08-26T07:18:41;22.88;;;11.30;;
24619;SDS011;12763;55.802;37.404;2022-08-26T07:21:09;16.52;;;11.73;;
24619;SDS011;12763;55.802;37.404;2022-08-26T07:23:37;21.55;;;11.65;;
24619;SDS011;12763;55.802;37.404;2022-08-26T07:26:07;21.77;;;11.75;;
24619;SDS011;12763;55.802;37.404;2022-08-26T07:28:35;25.38;;;11.30;;
24619;SDS011;12763;55.802;37.404;2022-08-26T07:31:06;25.38;;;11.80;;
24619;SDS011;12763;55.802;37.404;2022-08-26T07:33:33;19.77;;;11.20;;
24619;SDS011;12763;55.802;37.404;2022-08-26T07:36:00;21.08;;;11.68;;
24619;SDS011;12763;55.802;37.404;2022-08-26T07:38:27;17.55;;;10.32;;
24619;SDS011;12763;55.802;37.404;2022-08-26T07:40:53;16.83;;;10.52;;
24619;SDS011;12763;55.802;37.404;2022-08-26T07:43:20;17.63;;;10.55;;
24619;SDS011;12763;55.802;37.404;2022-08-26T07:45:46;15.68;;;9.90;;
24619;SDS011;12763;55.802;37.404;2022-08-26T07:48:12;22.33;;;11.57;;
24619;SDS011;12763;55.802;37.404;2022-08-26T07:50:39;13.88;;;9.85;;
24619;SDS011;12763;55.802;37.404;2022-08-26T07:53:05;14.02;;;9.13;;
24619;SDS011;12763;55.802;37.404;2022-08-26T07:55:32;13.57;;;9.63;;
24619;SDS011;12763;55.802;37.404;2022-08-26T07:57:58;12.45;;;8.60;;
24619;SDS011;12763;55.802;37.404;2022-08-26T08:00:25;15.45;;;9.05;;
24619;SDS011;12763;55.802;37.404;2022-08-26T08:02:52;14.00;;;9.15;;
24619;SDS011;12763;55.802;37.404;2022-08-26T08:05:19;12.82;;;8.40;;
24619;SDS011;12763;55.802;37.404;2022-08-26T08:07:46;10.98;;;8.02;;
24619;SDS011;12763;55.802;37.404;2022-08-26T08:10:15;22.23;;;9.30;;
24619;SDS011;12763;55.802;37.404;2022-08-26T08:12:42;14.23;;;7.72;;
24619;SDS011;12763;55.802;37.404;2022-08-26T08:15:09;14.13;;;9.07;;
24619;SDS011;12763;55.802;37.404;2022-08-26T08:17:40;18.55;;;8.70;;
24619;SDS011;12763;55.802;37.404;2022-08-26T08:20:08;13.50;;;7.88;;
24619;SDS011;12763;55.802;37.404;2022-08-26T08:22:35;15.68;;;8.57;;
24619;SDS011;12763;55.802;37.404;2022-08-26T08:25:01;17.75;;;8.73;;
24619;SDS011;12763;55.802;37.404;2022-08-26T08:27:31;13.93;;;8.40;;
24619;SDS011;12763;55.802;37.404;2022-08-26T08:29:58;14.30;;;8.68;;
24619;SDS011;12763;55.802;37.404;2022-08-26T08:32:25;19.38;;;9.48;;
24619;SDS011;12763;55.802;37.404;2022-08-26T08:34:55;14.20;;;9.70;;
24619;SDS011;12763;55.802;37.404;2022-08-26T08:37:25;14.93;;;8.77;;
24619;SDS011;12763;55.802;37.404;2022-08-26T08:39:51;17.27;;;9.68;;
24619;SDS011;12763;55.802;37.404;2022-08-26T08:45:11;21.05;;;10.55;;
24619;SDS011;12763;55.802;37.404;2022-08-26T08:47:58;15.05;;;8.65;;
24619;SDS011;12763;55.802;37.404;2022-08-26T08:50:36;17.08;;;9.55;;
24619;SDS011;12763;55.802;37.404;2022-08-26T08:53:18;26.85;;;8.88;;
24619;SDS011;12763;55.802;37.404;2022-08-26T09:01:24;19.25;;;8.68;;
24619;SDS011;12763;55.802;37.404;2022-08-26T09:04:22;14.35;;;8.32;;
24619;SDS011;12763;55.802;37.404;2022-08-26T09:07:00;17.42;;;8.45;;
24619;SDS011;12763;55.802;37.404;2022-08-26T09:09:31;13.20;;;8.18;;
24619;SDS011;12763;55.802;37.404;2022-08-26T09:12:03;14.25;;;8.50;;
24619;SDS011;12763;55.802;37.404;2022-08-26T09:14:32;12.18;;;8.25;;
24619;SDS011;12763;55.802;37.404;2022-08-26T09:19:42;14.38;;;8.38;;
24619;SDS011;12763;55.802;37.404;2022-08-26T09:22:31;11.20;;;7.78;;
24619;SDS011;12763;55.802;37.404;2022-08-26T09:25:00;10.30;;;7.73;;
24619;SDS011;12763;55.802;37.404;2022-08-26T09:27:36;11.38;;;8.75;;
24619;SDS011;12763;55.802;37.404;2022-08-26T09:30:05;19.38;;;10.05;;
24619;SDS011;12763;55.802;37.404;2022-08-26T09:32:32;13.95;;;8.57;;
24619;SDS011;12763;55.802;37.404;2022-08-26T09:35:01;13.68;;;8.25;;
24619;SDS011;12763;55.802;37.404;2022-08-26T09:37:32;10.82;;;7.97;;
24619;SDS011;12763;55.802;37.404;2022-08-26T09:43:09;14.02;;;8.27;;
24619;SDS011;12763;55.802;37.404;2022-08-26T09:45:45;12.20;;;8.43;;
24619;SDS011;12763;55.802;37.404;2022-08-26T09:48:35;12.13;;;8.50;;
24619;SDS011;12763;55.802;37.404;2022-08-26T09:51:05;16.83;;;9.18;;
24619;SDS011;12763;55.802;37.404;2022-08-26T09:53:56;17.35;;;8.48;;
24619;SDS011;12763;55.802;37.404;2022-08-26T09:58:52;14.40;;;8.43;;
24619;SDS011;12763;55.802;37.404;2022-08-26T10:01:33;11.05;;;8.02;;
24619;SDS011;12763;55.802;37.404;2022-08-26T10:06:40;12.27;;;8.10;;
24619;SDS011;12763;55.802;37.404;2022-08-26T10:09:24;9.75;;;8.43;;
24619;SDS011;12763;55.802;37.404;2022-08-26T10:11:55;12.10;;;8.00;;
24619;SDS011;12763;55.802;37.404;2022-08-26T10:14:33;14.57;;;8.95;;
24619;SDS011;12763;55.802;37.404;2022-08-26T10:17:09;14.82;;;8.95;;
24619;SDS011;12763;55.802;37.404;2022-08-26T10:19:43;13.25;;;7.85;;
24619;SDS011;12763;55.802;37.404;2022-08-26T10:22:17;8.55;;;7.65;;
24619;SDS011;12763;55.802;37.404;2022-08-26T10:24:50;9.35;;;8.02;;
24619;SDS011;12763;55.802;37.404;2022-08-26T10:29:55;11.65;;;8.82;;
24619;SDS011;12763;55.802;37.404;2022-08-26T10:33:17;14.43;;;7.93;;
24619;SDS011;12763;55.802;37.404;2022-08-26T10:35:30;11.38;;;8.85;;
24619;SDS011;12763;55.802;37.404;2022-08-26T10:38:00;17.00;;;8.40;;
24619;SDS011;12763;55.802;37.404;2022-08-26T10:40:47;10.05;;;7.50;;
24619;SDS011;12763;55.802;37.404;2022-08-26T10:43:21;11.20;;;8.13;;
24619;SDS011;12763;55.802;37.404;2022-08-26T10:45:52;11.18;;;8.00;;
24619;SDS011;12763;55.802;37.404;2022-08-26T10:48:26;11.10;;;7.95;;
24619;SDS011;12763;55.802;37.404;2022-08-26T10:50:55;16.02;;;8.32;;
24619;SDS011;12763;55.802;37.404;2022-08-26T10:53:23;11.05;;;7.15;;
24619;SDS011;12763;55.802;37.404;2022-08-26T11:07:47;8.02;;;6.30;;
24619;SDS011;12763;55.802;37.404;2022-08-26T11:12:54;10.88;;;7.22;;
24619;SDS011;12763;55.802;37.404;2022-08-26T11:17:55;10.48;;;7.45;;
24619;SDS011;12763;55.802;37.404;2022-08-26T11:33:44;9.52;;;6.18;;
24619;SDS011;12763;55.802;37.404;2022-08-26T11:42:02;10.65;;;7.43;;
24619;SDS011;12763;55.802;37.404;2022-08-26T11:44:42;11.67;;;6.77;;
24619;SDS011;12763;55.802;37.404;2022-08-26T11:47:11;9.57;;;6.72;;
24619;SDS011;12763;55.802;37.404;2022-08-26T11:49:40;16.08;;;7.07;;
24619;SDS011;12763;55.802;37.404;2022-08-26T11:52:17;10.52;;;6.80;;
24619;SDS011;12763;55.802;37.404;2022-08-26T11:55:00;8.25;;;7.45;;
24619;SDS011;12763;55.802;37.404;2022-08-26T11:57:43;10.70;;;7.05;;
24619;SDS011;12763;55.802;37.404;2022-08-26T12:00:22;10.32;;;7.43;;
24619;SDS011;12763;55.802;37.404;2022-08-26T12:02:52;13.77;;;7.68;;
24619;SDS011;12763;55.802;37.404;2022-08-26T12:05:28;9.10;;;7.28;;
24619;SDS011;12763;55.802;37.404;2022-08-26T12:07:58;8.65;;;7.20;;
24619;SDS011;12763;55.802;37.404;2022-08-26T12:10:33;10.13;;;7.35;;
24619;SDS011;12763;55.802;37.404;2022-08-26T12:13:00;10.73;;;6.95;;
24619;SDS011;12763;55.802;37.404;2022-08-26T12:15:30;9.05;;;6.93;;
24619;SDS011;12763;55.802;37.404;2022-08-26T12:18:14;11.02;;;7.75;;
24619;SDS011;12763;55.802;37.404;2022-08-26T12:20:48;8.27;;;7.03;;
24619;SDS011;12763;55.802;37.404;2022-08-26T12:23:39;11.57;;;6.50;;
24619;SDS011;12763;55.802;37.404;2022-08-26T12:28:59;8.10;;;6.50;;
24619;SDS011;12763;55.802;37.404;2022-08-26T12:31:41;9.20;;;6.57;;
24619;SDS011;12763;55.802;37.404;2022-08-26T12:34:10;9.93;;;6.68;;
24619;SDS011;12763;55.802;37.404;2022-08-26T12:36:47;11.47;;;6.40;;
24619;SDS011;12763;55.802;37.404;2022-08-26T12:42:01;11.82;;;6.93;;
24619;SDS011;12763;55.802;37.404;2022-08-26T12:47:27;10.80;;;7.30;;
24619;SDS011;12763;55.802;37.404;2022-08-26T12:55:35;12.15;;;7.57;;
24619;SDS011;12763;55.802;37.404;2022-08-26T12:58:27;11.77;;;7.78;;
24619;SDS011;12763;55.802;37.404;2022-08-26T13:14:05;9.55;;;6.63;;
24619;SDS011;12763;55.802;37.404;2022-08-26T13:16:35;7.47;;;6.75;;
24619;SDS011;12763;55.802;37.404;2022-08-26T13:19:04;11.48;;;7.03;;
24619;SDS011;12763;55.802;37.404;2022-08-26T13:21:34;7.95;;;6.32;;
24619;SDS011;12763;55.802;37.404;2022-08-26T13:24:15;12.35;;;6.45;;
24619;SDS011;12763;55.802;37.404;2022-08-26T13:26:48;8.52;;;5.72;;
24619;SDS011;12763;55.802;37.404;2022-08-26T13:29:14;9.77;;;5.65;;
24619;SDS011;12763;55.802;37.404;2022-08-26T13:31:41;9.82;;;6.45;;
24619;SDS011;12763;55.802;37.404;2022-08-26T13:34:09;8.77;;;5.18;;
24619;SDS011;12763;55.802;37.404;2022-08-26T13:36:39;10.50;;;6.13;;
24619;SDS011;12763;55.802;37.404;2022-08-26T13:42:42;9.82;;;6.07;;
24619;SDS011;12763;55.802;37.404;2022-08-26T13:45:09;14.05;;;6.28;;
24619;SDS011;12763;55.802;37.404;2022-08-26T13:47:37;9.55;;;6.30;;
24619;SDS011;12763;55.802;37.404;2022-08-26T13:50:04;10.45;;;7.00;;
24619;SDS011;12763;55.802;37.404;2022-08-26T13:52:34;13.57;;;6.38;;
24619;SDS011;12763;55.802;37.404;2022-08-26T13:55:00;8.60;;;6.57;;
24619;SDS011;12763;55.802;37.404;2022-08-26T13:57:29;9.27;;;6.57;;
24619;SDS011;12763;55.802;37.404;2022-08-26T13:59:55;9.45;;;6.50;;
24619;SDS011;12763;55.802;37.404;2022-08-26T14:02:24;13.13;;;7.30;;
24619;SDS011;12763;55.802;37.404;2022-08-26T14:04:51;10.15;;;6.90;;
24619;SDS011;12763;55.802;37.404;2022-08-26T14:07:20;10.82;;;6.38;;
24619;SDS011;12763;55.802;37.404;2022-08-26T14:09:47;10.15;;;6.43;;
24619;SDS011;12763;55.802;37.404;2022-08-26T14:12:15;7.90;;;6.35;;
24619;SDS011;12763;55.802;37.404;2022-08-26T14:14:42;12.75;;;6.90;;
24619;SDS011;12763;55.802;37.404;2022-08-26T14:17:08;6.60;;;5.82;;
24619;SDS011;12763;55.802;37.404;2022-08-26T14:19:36;9.10;;;6.10;;
24619;SDS011;12763;55.802;37.404;2022-08-26T14:22:04;10.68;;;6.75;;
24619;SDS011;12763;55.802;37.404;2022-08-26T14:24:31;8.65;;;6.72;;
24619;SDS011;12763;55.802;37.404;2022-08-26T14:26:58;11.40;;;8.15;;
24619;SDS011;12763;55.802;37.404;2022-08-26T14:29:27;10.38;;;6.90;;
24619;SDS011;12763;55.802;37.404;2022-08-26T14:31:53;11.30;;;7.82;;
24619;SDS011;12763;55.802;37.404;2022-08-26T14:34:25;13.38;;;7.78;;
24619;SDS011;12763;55.802;37.404;2022-08-26T14:36:53;12.43;;;6.63;;
24619;SDS011;12763;55.802;37.404;2022-08-26T14:39:20;13.10;;;7.78;;
24619;SDS011;12763;55.802;37.404;2022-08-26T14:41:50;11.20;;;6.95;;
24619;SDS011;12763;55.802;37.404;2022-08-26T14:44:21;9.25;;;7.60;;
24619;SDS011;12763;55.802;37.404;2022-08-26T14:46:52;13.13;;;7.85;;
24619;SDS011;12763;55.802;37.404;2022-08-26T14:49:25;16.27;;;8.30;;
24619;SDS011;12763;55.802;37.404;2022-08-26T14:51:55;12.88;;;8.50;;
24619;SDS011;12763;55.802;37.404;2022-08-26T14:54:22;15.98;;;8.23;;
24619;SDS011;12763;55.802;37.404;2022-08-26T14:56:57;12.10;;;8.02;;
24619;SDS011;12763;55.802;37.404;2022-08-26T14:59:31;13.07;;;8.63;;
24619;SDS011;12763;55.802;37.404;2022-08-26T15:02:00;11.60;;;7.50;;
24619;SDS011;12763;55.802;37.404;2022-08-26T15:04:28;14.88;;;8.30;;
24619;SDS011;12763;55.802;37.404;2022-08-26T15:06:55;9.05;;;7.60;;
24619;SDS011;12763;55.802;37.404;2022-08-26T15:10:48;13.25;;;7.78;;
24619;SDS011;12763;55.802;37.404;2022-08-26T15:13:16;9.45;;;7.50;;
24619;SDS011;12763;55.802;37.404;2022-08-26T15:15:43;10.50;;;7.18;;
24619;SDS011;12763;55.802;37.404;2022-08-26T15:18:13;11.65;;;8.00;;
24619;SDS011;12763;55.802;37.404;2022-08-26T15:20:45;8.20;;;7.03;;
24619;SDS011;12763;55.802;37.404;2022-08-26T15:23:13;10.15;;;7.68;;
24619;SDS011;12763;55.802;37.404;2022-08-26T15:25:42;8.05;;;7.22;;
24619;SDS011;12763;55.802;37.404;2022-08-26T15:28:15;11.43;;;7.05;;
24619;SDS011;12763;55.802;37.404;2022-08-26T15:30:42;11.85;;;7.72;;
24619;SDS011;12763;55.802;37.404;2022-08-26T15:33:18;9.23;;;7.03;;
24619;SDS011;12763;55.802;37.404;2022-08-26T15:35:45;10.85;;;7.43;;
24619;SDS011;12763;55.802;37.404;2022-08-26T15:38:17;11.95;;;7.78;;
24619;SDS011;12763;55.802;37.404;2022-08-26T15:40:44;12.90;;;7.45;;
24619;SDS011;12763;55.802;37.404;2022-08-26T15:43:11;14.75;;;8.05;;
24619;SDS011;12763;55.802;37.404;2022-08-26T15:45:39;18.20;;;8.20;;
24619;SDS011;12763;55.802;37.404;2022-08-26T15:48:06;11.77;;;8.32;;
24619;SDS011;12763;55.802;37.404;2022-08-26T15:50:39;11.80;;;8.07;;
24619;SDS011;12763;55.802;37.404;2022-08-26T15:53:16;13.45;;;8.63;;
24619;SDS011;12763;55.802;37.404;2022-08-26T15:55:43;11.00;;;7.63;;
24619;SDS011;12763;55.802;37.404;2022-08-26T15:58:11;14.40;;;8.18;;
24619;SDS011;12763;55.802;37.404;2022-08-26T16:00:39;15.93;;;7.82;;
24619;SDS011;12763;55.802;37.404;2022-08-26T16:03:06;12.32;;;8.13;;
24619;SDS011;12763;55.802;37.404;2022-08-26T16:05:37;14.27;;;7.75;;